CYOO

Oshawa Airport

Oshawa, , Canada
METAR CYOO 201600Z AUTO 31012G19KT 9SM BKN047 OVC060 09/03 A2965 RMK SLP045
Observed Flight Rules
Oct-20 @ 16:00 UTC (an hour ago) Visual Flight Rules
Wind Visibility Clouds
310° at 12 knots
 Gusting to 19 knots
9 miles
  • Broken at 4,700' AGL
  • Overcast at 6,000' AGL
Temperatures Readings
Current 9°C / 48°F
Dewpoint 3°C / 37°F
Humidity 66%
Altimeter 29.65" Hg
Pressure 1004.5 hPa
Elevation 139
METAR CYOO 201600Z AUTO 31012G19KT 9SM BKN047 OVC060 09/03 A2965 RMK SLP045
Observed Flight Rules
Oct-20 @ 16:00 UTC
(an hour ago)
VFR
Wind Visibility
310° at 12 knots
 Gusting to 19 knots
9 miles
Clouds
  • Broken at 4,700' AGL
  • Overcast at 6,000' AGL
Temperature Dewpoint
9°C / 48°F 3°C / 37°F
Humidity Altimeter Pressure
66% 29.65" Hg 1004.5 hPa